Atlantic, NC (28511)

8:17 PM EDT on August 31, 2015 (GMT -0400)
Core Sound's 2 West Shore Heel of Rock Jetty | | Change Station
CLOSE
Current Station
Personal Weather Station
Location: Davis, NC
Elevation: 13 ft
Nearby Weather Stations

Elev 13 ft 34.80 °N, 76.46 °W | Updated 1 minute ago

Mostly Cloudy
Mostly Cloudy
78.6 °F
Feels Like 82 °F
N
7.0
Wind Variable Wind from SSW
Gusts 10.0 mph

Today
High -- | Low -- °F
--% Chance of Precip.
Yesterday
High -- | Low -- °F
Precip. -- in
6:37 AM 7:33 PM
Waning Gibbous, 93% visible
Pressure 30.06 in
Visibility 10.0 miles
Clouds Few 1600 ft
Mostly Cloudy 2200 ft
Overcast 12000 ft
Heat Index 82 °F
Dew Point 76 °F
Humidity 91%
Rainfall 0.47 in
Snow Depth Not available.
UV 0 out of 12
Pollen 8.40 out of 12
Air Quality Not available.
Flu Activity Not available.
METAR KMRH 312358Z AUTO 15007KT 10SM FEW016 BKN022 OVC120 26/24 A3005 RMK AO2 SLP178 60030 T02560239 10256 20233 55003 TSNO
Pressure 30.06 in
Visibility 10.0 miles
Clouds Few 1600 ft
Mostly Cloudy 2200 ft
Overcast 12000 ft
Heat Index 82 °F
Dew Point 76 °F
Humidity 91%
Rainfall 0.47 in
Snow Depth Not available.
UV 0 out of 12
Pollen 8.40 out of 12
Air Quality Not available.
Flu Activity Not available.
METAR KMRH 312358Z AUTO 15007KT 10SM FEW016 BKN022 OVC120 26/24 A3005 RMK AO2 SLP178 60030 T02560239 10256 20233 55003 TSNO

10-Day Weather Forecast

×

Almanac

Astronomy

Aug. 31, 2015 Rise Set
Actual Time
Civil Twilight
Nautical Twilight
Astronomical Twilight
Moon
Length of Visible Light
Length of Day
Tomorrow will be .
, % of the Moon is Illuminated

Today's Extremes

State Highs State Lows

Community

WunderPhotos

Upload Photos

1,851,403 photos uploaded!

WunderBlogs® & News

Nearby

Air Quality

  Air Quality AQ Index Pollutant
Not available.

Snow Depth

Station Depth Elevation

Earthquake Activity

City Distance Mag. Time & Date
Minimum magnitude displayed is 2.5.

Coastal Water Temperatures

Place Temperature

Stations

Nearby Weather Stations

Station Location Temp. Windchill Dew Point Humidity Wind Precip. Elev Updated Type